Terminal Aerodrome Forecast
Issued by NWS Sioux Falls, SD

Home | Current Version | Previous Version | Graphics & Text | Print | Product List | Glossary Off
Versions: 1 2 3 4 5 6 7 8 9 10 11 12 13 14 15 16 17 18 19 20 21 22 23 24 25 26 27 28 29 30 31 32 33 34 35

000
FTUS43 KFSD 230942 AAB
TAFSUX
TAF AMD
KSUX 230942Z 2310/2406 33010KT 2SM -SN OVC006
      TEMPO 2310/2313 1SM -SN OVC003
     FM231500 33015G22KT 5SM -SN OVC008
     FM232000 33020G28KT P6SM OVC012
     FM240300 33014G20KT P6SM OVC015=

USA.gov is the U.S. government's official web portal to all federal, state and local government web resources and services.